sensor_id;sensor_type;location;lat;lon;timestamp;pressure;altitude;pressure_sealevel;temperature;humidity
54920;BME280;63804;53.120;8.764;2023-04-15T00:02:17;101113.94;;;8.75;70.98
54920;BME280;63804;53.120;8.764;2023-04-15T00:04:45;101119.34;;;8.74;71.42
54920;BME280;63804;53.120;8.764;2023-04-15T00:07:11;101123.88;;;8.86;70.92
54920;BME280;63804;53.120;8.764;2023-04-15T00:09:36;101114.81;;;9.05;70.24
54920;BME280;63804;53.120;8.764;2023-04-15T00:12:02;101116.22;;;9.10;69.84
54920;BME280;63804;53.120;8.764;2023-04-15T00:14:28;101120.84;;;9.07;69.80
54920;BME280;63804;53.120;8.764;2023-04-15T00:16:53;101116.41;;;9.07;69.88
54920;BME280;63804;53.120;8.764;2023-04-15T00:19:22;101118.47;;;8.73;71.04
54920;BME280;63804;53.120;8.764;2023-04-15T00:21:48;101115.75;;;8.75;71.38
54920;BME280;63804;53.120;8.764;2023-04-15T00:24:14;101116.13;;;8.97;70.67
54920;BME280;63804;53.120;8.764;2023-04-15T00:26:39;101109.72;;;9.01;70.47
54920;BME280;63804;53.120;8.764;2023-04-15T00:29:05;101114.59;;;9.08;70.10
54920;BME280;63804;53.120;8.764;2023-04-15T00:31:31;101115.38;;;9.10;69.76
54920;BME280;63804;53.120;8.764;2023-04-15T00:33:57;101109.72;;;9.16;69.55
54920;BME280;63804;53.120;8.764;2023-04-15T00:36:22;101111.97;;;9.08;69.84
54920;BME280;63804;53.120;8.764;2023-04-15T00:38:48;101108.56;;;8.91;70.60
54920;BME280;63804;53.120;8.764;2023-04-15T00:41:14;101106.59;;;8.95;70.81
54920;BME280;63804;53.120;8.764;2023-04-15T00:43:40;101112.38;;;9.01;70.53
54920;BME280;63804;53.120;8.764;2023-04-15T00:46:05;101113.22;;;9.02;70.47
54920;BME280;63804;53.120;8.764;2023-04-15T00:48:32;101106.03;;;9.04;70.23
54920;BME280;63804;53.120;8.764;2023-04-15T00:50:57;101102.91;;;9.12;69.64
54920;BME280;63804;53.120;8.764;2023-04-15T00:53:23;101102.53;;;9.03;70.30
54920;BME280;63804;53.120;8.764;2023-04-15T00:55:49;101106.50;;;9.11;70.11
54920;BME280;63804;53.120;8.764;2023-04-15T00:58:15;101097.44;;;9.15;69.68
54920;BME280;63804;53.120;8.764;2023-04-15T01:00:47;101095.75;;;9.14;69.98
54920;BME280;63804;53.120;8.764;2023-04-15T01:03:13;101088.19;;;9.08;69.86
54920;BME280;63804;53.120;8.764;2023-04-15T01:05:39;101088.19;;;9.08;70.15
54920;BME280;63804;53.120;8.764;2023-04-15T01:08:05;101089.81;;;9.10;70.27
54920;BME280;63804;53.120;8.764;2023-04-15T01:10:32;101081.88;;;9.10;70.10
54920;BME280;63804;53.120;8.764;2023-04-15T01:12:57;101079.06;;;8.99;70.45
54920;BME280;63804;53.120;8.764;2023-04-15T01:15:23;101081.78;;;9.12;70.22
54920;BME280;63804;53.120;8.764;2023-04-15T01:17:49;101082.44;;;9.15;70.13
54920;BME280;63804;53.120;8.764;2023-04-15T01:20:16;101080.84;;;9.13;70.28
54920;BME280;63804;53.120;8.764;2023-04-15T01:22:41;101082.25;;;9.04;70.75
54920;BME280;63804;53.120;8.764;2023-04-15T01:25:11;101081.31;;;9.05;71.04
54920;BME280;63804;53.120;8.764;2023-04-15T01:27:40;101075.66;;;9.11;70.82
54920;BME280;63804;53.120;8.764;2023-04-15T01:30:07;101079.53;;;9.06;71.18
54920;BME280;63804;53.120;8.764;2023-04-15T01:32:33;101073.97;;;9.10;70.78
54920;BME280;63804;53.120;8.764;2023-04-15T01:34:59;101081.22;;;8.92;71.74
54920;BME280;63804;53.120;8.764;2023-04-15T01:37:24;101071.78;;;8.88;71.94
54920;BME280;63804;53.120;8.764;2023-04-15T01:39:51;101075.19;;;9.05;71.50
54920;BME280;63804;53.120;8.764;2023-04-15T01:42:16;101070.94;;;9.02;71.35
54920;BME280;63804;53.120;8.764;2023-04-15T01:44:42;101079.59;;;9.04;71.57
54920;BME280;63804;53.120;8.764;2023-04-15T01:47:10;101086.31;;;9.10;71.13
54920;BME280;63804;53.120;8.764;2023-04-15T01:49:36;101086.44;;;9.08;71.50
54920;BME280;63804;53.120;8.764;2023-04-15T01:52:02;101086.31;;;9.10;70.88
54920;BME280;63804;53.120;8.764;2023-04-15T01:54:27;101082.91;;;9.08;71.08
54920;BME280;63804;53.120;8.764;2023-04-15T01:56:53;101076.53;;;8.97;71.83
54920;BME280;63804;53.120;8.764;2023-04-15T01:59:18;101078.03;;;8.87;72.05
54920;BME280;63804;53.120;8.764;2023-04-15T02:01:44;101069.16;;;8.88;71.99
54920;BME280;63804;53.120;8.764;2023-04-15T02:04:10;101072.56;;;8.90;71.94
54920;BME280;63804;53.120;8.764;2023-04-15T02:06:44;101071.88;;;8.87;72.15
54920;BME280;63804;53.120;8.764;2023-04-15T02:09:10;101070.47;;;8.81;72.82
54920;BME280;63804;53.120;8.764;2023-04-15T02:11:36;101081.44;;;8.89;72.44
54920;BME280;63804;53.120;8.764;2023-04-15T02:14:02;101075.00;;;8.93;72.03
54920;BME280;63804;53.120;8.764;2023-04-15T02:16:31;101078.78;;;8.89;71.93
54920;BME280;63804;53.120;8.764;2023-04-15T02:18:58;101073.75;;;8.85;72.25
54920;BME280;63804;53.120;8.764;2023-04-15T02:21:30;101071.78;;;8.88;72.34
54920;BME280;63804;53.120;8.764;2023-04-15T02:23:56;101077.72;;;8.92;72.19
54920;BME280;63804;53.120;8.764;2023-04-15T02:26:22;101073.41;;;8.91;72.05
54920;BME280;63804;53.120;8.764;2023-04-15T02:28:48;101072.94;;;8.98;71.88
54920;BME280;63804;53.120;8.764;2023-04-15T02:31:16;101074.63;;;8.99;71.77
54920;BME280;63804;53.120;8.764;2023-04-15T02:33:41;101073.88;;;8.97;72.15
54920;BME280;63804;53.120;8.764;2023-04-15T02:36:07;101072.94;;;8.98;71.88
54920;BME280;63804;53.120;8.764;2023-04-15T02:38:33;101072.25;;;8.95;72.03
54920;BME280;63804;53.120;8.764;2023-04-15T02:40:59;101065.94;;;8.97;72.43
54920;BME280;63804;53.120;8.764;2023-04-15T02:43:24;101074.72;;;8.98;72.13
54920;BME280;63804;53.120;8.764;2023-04-15T02:45:50;101080.09;;;8.96;72.29
54920;BME280;63804;53.120;8.764;2023-04-15T02:48:16;101084.44;;;8.97;72.25
54920;BME280;63804;53.120;8.764;2023-04-15T02:50:44;101086.78;;;9.02;72.18
54920;BME280;63804;53.120;8.764;2023-04-15T02:53:10;101086.91;;;9.00;72.21
54920;BME280;63804;53.120;8.764;2023-04-15T02:55:37;101081.81;;;8.97;72.70
54920;BME280;63804;53.120;8.764;2023-04-15T02:58:03;101086.78;;;9.02;72.60
54920;BME280;63804;53.120;8.764;2023-04-15T03:00:28;101085.78;;;9.05;72.48
54920;BME280;63804;53.120;8.764;2023-04-15T03:03:02;101081.88;;;9.10;72.21
54920;BME280;63804;53.120;8.764;2023-04-15T03:05:28;101078.75;;;9.03;72.78
54920;BME280;63804;53.120;8.764;2023-04-15T03:07:54;101079.91;;;8.99;72.76
54920;BME280;63804;53.120;8.764;2023-04-15T03:10:20;101079.41;;;9.07;72.41
54920;BME280;63804;53.120;8.764;2023-04-15T03:12:46;101073.59;;;9.16;72.62
54920;BME280;63804;53.120;8.764;2023-04-15T03:15:12;101079.06;;;9.13;72.81
54920;BME280;63804;53.120;8.764;2023-04-15T03:17:37;101081.50;;;9.16;72.67
54920;BME280;63804;53.120;8.764;2023-04-15T03:20:04;101077.25;;;9.14;72.88
54920;BME280;63804;53.120;8.764;2023-04-15T03:22:33;101070.47;;;9.10;72.85
54920;BME280;63804;53.120;8.764;2023-04-15T03:24:58;101068.78;;;9.09;73.01
54920;BME280;63804;53.120;8.764;2023-04-15T03:27:24;101071.59;;;9.06;73.22
54920;BME280;63804;53.120;8.764;2023-04-15T03:29:50;101070.00;;;9.03;73.63
54920;BME280;63804;53.120;8.764;2023-04-15T03:32:16;101068.19;;;9.03;73.71
54920;BME280;63804;53.120;8.764;2023-04-15T03:34:42;101062.34;;;9.13;73.57
54920;BME280;63804;53.120;8.764;2023-04-15T03:37:08;101060.84;;;9.09;73.55
54920;BME280;63804;53.120;8.764;2023-04-15T03:39:34;101058.56;;;9.17;73.57
54920;BME280;63804;53.120;8.764;2023-04-15T03:42:00;101065.66;;;9.16;73.48
54920;BME280;63804;53.120;8.764;2023-04-15T03:44:26;101066.22;;;9.21;73.64
54920;BME280;63804;53.120;8.764;2023-04-15T03:46:53;101071.69;;;9.18;73.67
54920;BME280;63804;53.120;8.764;2023-04-15T03:49:19;101057.91;;;9.13;73.76
54920;BME280;63804;53.120;8.764;2023-04-15T03:51:45;101064.88;;;9.14;74.03
54920;BME280;63804;53.120;8.764;2023-04-15T03:54:11;101068.31;;;9.16;74.02
54920;BME280;63804;53.120;8.764;2023-04-15T03:56:38;101065.19;;;9.24;73.97
54920;BME280;63804;53.120;8.764;2023-04-15T03:59:04;101058.16;;;9.23;74.17
54920;BME280;63804;53.120;8.764;2023-04-15T04:01:29;101061.88;;;9.20;74.02
54920;BME280;63804;53.120;8.764;2023-04-15T04:03:55;101074.59;;;9.28;73.74
54920;BME280;63804;53.120;8.764;2023-04-15T04:06:21;101067.53;;;9.28;73.74
54920;BME280;63804;53.120;8.764;2023-04-15T04:08:46;101060.53;;;9.27;73.97
54920;BME280;63804;53.120;8.764;2023-04-15T04:11:19;101060.78;;;9.37;73.87
54920;BME280;63804;53.120;8.764;2023-04-15T04:13:45;101063.19;;;9.27;74.13
54920;BME280;63804;53.120;8.764;2023-04-15T04:16:10;101053.75;;;9.23;74.38
54920;BME280;63804;53.120;8.764;2023-04-15T04:18:36;101065.84;;;9.27;74.11
54920;BME280;63804;53.120;8.764;2023-04-15T04:21:02;101065.59;;;9.31;74.06
54920;BME280;63804;53.120;8.764;2023-04-15T04:23:27;101069.22;;;9.30;74.07
54920;BME280;63804;53.120;8.764;2023-04-15T04:25:53;101077.25;;;9.28;74.41
54920;BME280;63804;53.120;8.764;2023-04-15T04:28:18;101066.03;;;9.24;74.50
54920;BME280;63804;53.120;8.764;2023-04-15T04:30:44;101072.03;;;9.26;74.63
54920;BME280;63804;53.120;8.764;2023-04-15T04:33:10;101071.97;;;9.28;74.50
54920;BME280;63804;53.120;8.764;2023-04-15T04:35:36;101075.34;;;9.30;74.81
54920;BME280;63804;53.120;8.764;2023-04-15T04:38:02;101079.28;;;9.37;74.43
54920;BME280;63804;53.120;8.764;2023-04-15T04:40:28;101082.88;;;9.36;74.56
54920;BME280;63804;53.120;8.764;2023-04-15T04:42:54;101079.59;;;9.33;74.81
54920;BME280;63804;53.120;8.764;2023-04-15T04:45:19;101077.59;;;9.36;74.82
54920;BME280;63804;53.120;8.764;2023-04-15T04:47:45;101077.31;;;9.26;75.35
54920;BME280;63804;53.120;8.764;2023-04-15T04:50:13;101079.41;;;9.36;75.22
54920;BME280;63804;53.120;8.764;2023-04-15T04:52:39;101068.53;;;9.40;75.13
54920;BME280;63804;53.120;8.764;2023-04-15T04:55:05;101070.22;;;9.41;74.99
54920;BME280;63804;53.120;8.764;2023-04-15T04:57:30;101075.91;;;9.35;75.32
54920;BME280;63804;53.120;8.764;2023-04-15T04:59:56;101077.31;;;9.26;75.80
54920;BME280;63804;53.120;8.764;2023-04-15T05:02:21;101080.78;;;9.41;75.50
54920;BME280;63804;53.120;8.764;2023-04-15T05:04:47;101083.53;;;9.40;75.33
54920;BME280;63804;53.120;8.764;2023-04-15T05:07:14;101082.97;;;9.35;75.84
54920;BME280;63804;53.120;8.764;2023-04-15T05:09:40;101090.06;;;9.34;76.05
54920;BME280;63804;53.120;8.764;2023-04-15T05:12:06;101090.53;;;9.41;76.03
54920;BME280;63804;53.120;8.764;2023-04-15T05:14:33;101081.75;;;9.40;75.81
54920;BME280;63804;53.120;8.764;2023-04-15T05:16:58;101089.50;;;9.43;75.83
54920;BME280;63804;53.120;8.764;2023-04-15T05:19:24;101087.22;;;9.37;76.17
54920;BME280;63804;53.120;8.764;2023-04-15T05:21:50;101081.84;;;9.39;76.24
54920;BME280;63804;53.120;8.764;2023-04-15T05:24:15;101097.72;;;9.39;76.50
54920;BME280;63804;53.120;8.764;2023-04-15T05:26:41;101088.06;;;9.38;76.67
54920;BME280;63804;53.120;8.764;2023-04-15T05:29:06;101087.28;;;9.50;76.09
54920;BME280;63804;53.120;8.764;2023-04-15T05:31:32;101095.31;;;9.48;76.30
54920;BME280;63804;53.120;8.764;2023-04-15T05:33:58;101094.84;;;9.42;76.68
54920;BME280;63804;53.120;8.764;2023-04-15T05:36:23;101098.06;;;9.47;76.49
54920;BME280;63804;53.120;8.764;2023-04-15T05:38:49;101101.47;;;9.49;76.82
54920;BME280;63804;53.120;8.764;2023-04-15T05:41:14;101093.63;;;9.47;76.69
54920;BME280;63804;53.120;8.764;2023-04-15T05:43:40;101100.22;;;9.55;76.84
54920;BME280;63804;53.120;8.764;2023-04-15T05:46:06;101102.88;;;9.55;76.83
54920;BME280;63804;53.120;8.764;2023-04-15T05:48:32;101101.16;;;9.53;76.95
54920;BME280;63804;53.120;8.764;2023-04-15T05:50:59;101100.72;;;9.47;77.51
54920;BME280;63804;53.120;8.764;2023-04-15T05:53:25;101100.13;;;9.42;78.05
54920;BME280;63804;53.120;8.764;2023-04-15T05:55:50;101110.53;;;9.45;77.60
54920;BME280;63804;53.120;8.764;2023-04-15T05:58:16;101108.19;;;9.40;77.91
54920;BME280;63804;53.120;8.764;2023-04-15T06:00:41;101101.94;;;9.41;78.38
54920;BME280;63804;53.120;8.764;2023-04-15T06:03:08;101106.75;;;9.49;78.02
54920;BME280;63804;53.120;8.764;2023-04-15T06:05:33;101111.06;;;9.50;78.16
54920;BME280;63804;53.120;8.764;2023-04-15T06:07:59;101113.16;;;9.59;78.14
54920;BME280;63804;53.120;8.764;2023-04-15T06:10:24;101108.06;;;9.56;78.05
54920;BME280;63804;53.120;8.764;2023-04-15T06:12:51;101114.19;;;9.57;78.07
54920;BME280;63804;53.120;8.764;2023-04-15T06:15:17;101116.94;;;9.55;78.18
54920;BME280;63804;53.120;8.764;2023-04-15T06:17:43;101119.66;;;9.53;78.57
54920;BME280;63804;53.120;8.764;2023-04-15T06:20:09;101120.44;;;9.56;78.44
54920;BME280;63804;53.120;8.764;2023-04-15T06:22:36;101115.88;;;9.58;78.43
54920;BME280;63804;53.120;8.764;2023-04-15T06:25:02;101121.16;;;9.58;78.73
54920;BME280;63804;53.120;8.764;2023-04-15T06:27:28;101126.06;;;9.64;78.49
54920;BME280;63804;53.120;8.764;2023-04-15T06:29:53;101124.88;;;9.55;78.59
54920;BME280;63804;53.120;8.764;2023-04-15T06:32:19;101131.66;;;9.59;78.31
54920;BME280;63804;53.120;8.764;2023-04-15T06:34:45;101134.00;;;9.64;78.56
54920;BME280;63804;53.120;8.764;2023-04-15T06:37:10;101134.00;;;9.64;78.63
54920;BME280;63804;53.120;8.764;2023-04-15T06:39:40;101134.31;;;9.59;78.97
54920;BME280;63804;53.120;8.764;2023-04-15T06:42:07;101144.47;;;9.65;79.01
54920;BME280;63804;53.120;8.764;2023-04-15T06:44:33;101145.13;;;9.69;78.66
54920;BME280;63804;53.120;8.764;2023-04-15T06:46:59;101146.94;;;9.68;78.60
54920;BME280;63804;53.120;8.764;2023-04-15T06:49:24;101145.03;;;9.70;78.96
54920;BME280;63804;53.120;8.764;2023-04-15T06:51:51;101149.50;;;9.70;78.81
54920;BME280;63804;53.120;8.764;2023-04-15T06:54:17;101154.00;;;9.68;79.07
54920;BME280;63804;53.120;8.764;2023-04-15T06:56:42;101154.59;;;9.73;78.90
54920;BME280;63804;53.120;8.764;2023-04-15T06:59:08;101146.16;;;9.81;78.82
54920;BME280;63804;53.120;8.764;2023-04-15T07:01:34;101148.69;;;9.82;78.58
54920;BME280;63804;53.120;8.764;2023-04-15T07:04:06;101149.16;;;9.89;78.75
54920;BME280;63804;53.120;8.764;2023-04-15T07:06:31;101154.53;;;9.87;78.77
54920;BME280;63804;53.120;8.764;2023-04-15T07:08:58;101156.53;;;9.84;79.15
54920;BME280;63804;53.120;8.764;2023-04-15T07:11:25;101146.44;;;9.76;79.54
54920;BME280;63804;53.120;8.764;2023-04-15T07:13:50;101152.19;;;9.83;79.71
54920;BME280;63804;53.120;8.764;2023-04-15T07:16:16;101155.38;;;9.88;79.30
54920;BME280;63804;53.120;8.764;2023-04-15T07:18:41;101145.69;;;9.88;79.38
54920;BME280;63804;53.120;8.764;2023-04-15T07:21:07;101142.47;;;9.83;79.69
54920;BME280;63804;53.120;8.764;2023-04-15T07:23:33;101152.97;;;9.85;79.90
54920;BME280;63804;53.120;8.764;2023-04-15T07:25:59;101146.28;;;9.92;79.67
54920;BME280;63804;53.120;8.764;2023-04-15T07:28:26;101145.25;;;9.94;79.53
54920;BME280;63804;53.120;8.764;2023-04-15T07:30:51;101147.91;;;9.94;79.85
54920;BME280;63804;53.120;8.764;2023-04-15T07:33:17;101139.47;;;10.02;79.77
54920;BME280;63804;53.120;8.764;2023-04-15T07:35:43;101139.16;;;10.07;79.38
54920;BME280;63804;53.120;8.764;2023-04-15T07:38:09;101139.38;;;10.04;79.18
54920;BME280;63804;53.120;8.764;2023-04-15T07:40:37;101144.25;;;10.10;79.27
54920;BME280;63804;53.120;8.764;2023-04-15T07:43:04;101143.09;;;10.14;79.15
54920;BME280;63804;53.120;8.764;2023-04-15T07:45:30;101142.66;;;10.07;79.54
54920;BME280;63804;53.120;8.764;2023-04-15T07:47:56;101156.84;;;10.06;79.78
54920;BME280;63804;53.120;8.764;2023-04-15T07:50:22;101157.91;;;10.04;79.64
54920;BME280;63804;53.120;8.764;2023-04-15T07:52:49;101158.75;;;10.04;79.83
54920;BME280;63804;53.120;8.764;2023-04-15T07:55:15;101158.25;;;10.12;79.76
54920;BME280;63804;53.120;8.764;2023-04-15T07:57:43;101155.94;;;10.20;79.49
54920;BME280;63804;53.120;8.764;2023-04-15T08:00:09;101158.78;;;10.17;79.77
54920;BME280;63804;53.120;8.764;2023-04-15T08:02:35;101159.56;;;10.19;79.44
54920;BME280;63804;53.120;8.764;2023-04-15T08:05:02;101161.13;;;10.21;79.97
54920;BME280;63804;53.120;8.764;2023-04-15T08:07:29;101163.88;;;10.20;79.71
54920;BME280;63804;53.120;8.764;2023-04-15T08:09:54;101168.19;;;10.08;80.15
54920;BME280;63804;53.120;8.764;2023-04-15T08:12:21;101170.19;;;10.05;80.19
54920;BME280;63804;53.120;8.764;2023-04-15T08:14:46;101173.56;;;10.07;80.13
54920;BME280;63804;53.120;8.764;2023-04-15T08:17:12;101174.78;;;10.15;79.90
54920;BME280;63804;53.120;8.764;2023-04-15T08:19:44;101164.84;;;10.19;79.99
54920;BME280;63804;53.120;8.764;2023-04-15T08:22:10;101155.09;;;10.19;79.74
54920;BME280;63804;53.120;8.764;2023-04-15T08:24:36;101153.00;;;10.24;79.76
54920;BME280;63804;53.120;8.764;2023-04-15T08:27:02;101167.56;;;10.17;80.13
54920;BME280;63804;53.120;8.764;2023-04-15T08:29:31;101170.53;;;10.13;80.13
54920;BME280;63804;53.120;8.764;2023-04-15T08:31:58;101165.31;;;10.25;80.17
54920;BME280;63804;53.120;8.764;2023-04-15T08:34:26;101167.19;;;10.23;80.33
54920;BME280;63804;53.120;8.764;2023-04-15T08:36:51;101169.56;;;10.28;80.22
54920;BME280;63804;53.120;8.764;2023-04-15T08:39:17;101171.06;;;10.18;80.27
54920;BME280;63804;53.120;8.764;2023-04-15T08:41:47;101174.38;;;10.21;80.39
54920;BME280;63804;53.120;8.764;2023-04-15T08:44:16;101171.44;;;10.26;80.37
54920;BME280;63804;53.120;8.764;2023-04-15T08:46:42;101177.00;;;10.21;80.72
54920;BME280;63804;53.120;8.764;2023-04-15T08:49:10;101167.03;;;10.27;80.23
54920;BME280;63804;53.120;8.764;2023-04-15T08:51:41;101167.56;;;10.32;80.25
54920;BME280;63804;53.120;8.764;2023-04-15T08:54:08;101167.94;;;10.25;80.37
54920;BME280;63804;53.120;8.764;2023-04-15T08:56:34;101177.09;;;10.34;80.49
54920;BME280;63804;53.120;8.764;2023-04-15T08:59:00;101172.75;;;10.33;80.48
54920;BME280;63804;53.120;8.764;2023-04-15T09:01:26;101175.19;;;10.36;80.61
54920;BME280;63804;53.120;8.764;2023-04-15T09:03:52;101175.94;;;10.38;80.43
54920;BME280;63804;53.120;8.764;2023-04-15T09:06:22;101174.53;;;10.33;80.46
54920;BME280;63804;53.120;8.764;2023-04-15T09:08:48;101172.34;;;10.39;80.44
54920;BME280;63804;53.120;8.764;2023-04-15T09:11:14;101178.59;;;10.38;80.37
54920;BME280;63804;53.120;8.764;2023-04-15T09:13:42;101177.72;;;10.38;80.33
54920;BME280;63804;53.120;8.764;2023-04-15T09:16:08;101181.91;;;10.42;80.32
54920;BME280;63804;53.120;8.764;2023-04-15T09:18:35;101181.91;;;10.42;80.26
54920;BME280;63804;53.120;8.764;2023-04-15T09:21:12;101199.56;;;10.41;80.54
54920;BME280;63804;53.120;8.764;2023-04-15T09:23:41;101204.97;;;10.40;80.32
54920;BME280;63804;53.120;8.764;2023-04-15T09:26:18;101205.06;;;10.38;80.31
54920;BME280;63804;53.120;8.764;2023-04-15T09:28:43;101196.63;;;10.46;80.46
54920;BME280;63804;53.120;8.764;2023-04-15T09:31:09;101207.09;;;10.47;80.53
54920;BME280;63804;53.120;8.764;2023-04-15T09:33:53;101206.16;;;10.48;80.34
54920;BME280;63804;53.120;8.764;2023-04-15T09:36:18;101208.78;;;10.48;80.40
54920;BME280;63804;53.120;8.764;2023-04-15T09:38:58;101209.34;;;10.54;80.43
54920;BME280;63804;53.120;8.764;2023-04-15T09:41:25;101218.00;;;10.43;80.68
54920;BME280;63804;53.120;8.764;2023-04-15T09:43:51;101216.31;;;10.42;80.56
54920;BME280;63804;53.120;8.764;2023-04-15T09:46:17;101224.78;;;10.47;80.53
54920;BME280;63804;53.120;8.764;2023-04-15T09:48:43;101224.69;;;10.48;80.84
54920;BME280;63804;53.120;8.764;2023-04-15T09:51:09;101228.09;;;10.51;80.85
54920;BME280;63804;53.120;8.764;2023-04-15T09:53:35;101234.78;;;10.56;80.69
54920;BME280;63804;53.120;8.764;2023-04-15T09:56:02;101227.91;;;10.54;80.80
54920;BME280;63804;53.120;8.764;2023-04-15T09:58:30;101228.31;;;10.60;80.58
54920;BME280;63804;53.120;8.764;2023-04-15T10:00:58;101226.81;;;10.56;80.72
54920;BME280;63804;53.120;8.764;2023-04-15T10:03:26;101231.63;;;10.64;80.49
54920;BME280;63804;53.120;8.764;2023-04-15T10:05:54;101233.53;;;10.62;80.27
54920;BME280;63804;53.120;8.764;2023-04-15T10:08:22;101235.00;;;10.53;80.61
54920;BME280;63804;53.120;8.764;2023-04-15T10:10:49;101238.19;;;10.58;80.41
54920;BME280;63804;53.120;8.764;2023-04-15T10:13:19;101230.22;;;10.58;80.37
54920;BME280;63804;53.120;8.764;2023-04-15T10:15:50;101238.25;;;10.57;80.54
54920;BME280;63804;53.120;8.764;2023-04-15T10:18:19;101236.78;;;10.53;80.63
54920;BME280;63804;53.120;8.764;2023-04-15T10:20:47;101228.75;;;10.54;80.67
54920;BME280;63804;53.120;8.764;2023-04-15T10:23:14;101236.06;;;10.63;80.16
54920;BME280;63804;53.120;8.764;2023-04-15T10:25:40;101224.97;;;10.71;80.22
54920;BME280;63804;53.120;8.764;2023-04-15T10:28:06;101231.88;;;10.73;80.08
54920;BME280;63804;53.120;8.764;2023-04-15T10:30:35;101241.31;;;10.78;79.97
54920;BME280;63804;53.120;8.764;2023-04-15T10:33:02;101240.66;;;10.74;80.13
54920;BME280;63804;53.120;8.764;2023-04-15T10:35:30;101245.84;;;10.76;80.08
54920;BME280;63804;53.120;8.764;2023-04-15T10:37:56;101239.81;;;10.73;80.23
54920;BME280;63804;53.120;8.764;2023-04-15T10:40:29;101242.03;;;10.80;80.02
54920;BME280;63804;53.120;8.764;2023-04-15T10:43:02;101244.06;;;10.76;80.23
54920;BME280;63804;53.120;8.764;2023-04-15T10:45:32;101241.63;;;10.73;80.14
54920;BME280;63804;53.120;8.764;2023-04-15T10:48:01;101246.06;;;10.72;80.43
54920;BME280;63804;53.120;8.764;2023-04-15T10:50:27;101242.31;;;10.62;80.81
54920;BME280;63804;53.120;8.764;2023-04-15T10:52:55;101253.56;;;10.66;80.78
54920;BME280;63804;53.120;8.764;2023-04-15T10:55:32;101244.84;;;10.64;80.97
54920;BME280;63804;53.120;8.764;2023-04-15T10:57:59;101243.63;;;10.69;80.60
54920;BME280;63804;53.120;8.764;2023-04-15T11:00:29;101258.88;;;10.66;80.38
54920;BME280;63804;53.120;8.764;2023-04-15T11:05:23;101262.84;;;10.59;80.57
54920;BME280;63804;53.120;8.764;2023-04-15T11:08:08;101262.09;;;10.57;80.83
54920;BME280;63804;53.120;8.764;2023-04-15T11:13:02;101256.53;;;10.61;80.84
54920;BME280;63804;53.120;8.764;2023-04-15T11:18:13;101257.16;;;10.65;80.72
54920;BME280;63804;53.120;8.764;2023-04-15T11:20:41;101258.94;;;10.64;80.72
54920;BME280;63804;53.120;8.764;2023-04-15T11:23:09;101257.41;;;10.74;80.62
54920;BME280;63804;53.120;8.764;2023-04-15T11:25:36;101257.84;;;10.81;80.72
54920;BME280;63804;53.120;8.764;2023-04-15T11:28:03;101261.34;;;10.82;80.42
54920;BME280;63804;53.120;8.764;2023-04-15T11:30:31;101266.00;;;10.78;80.66
54920;BME280;63804;53.120;8.764;2023-04-15T11:33:09;101270.34;;;10.79;80.72
54920;BME280;63804;53.120;8.764;2023-04-15T11:35:41;101267.91;;;10.76;80.74
54920;BME280;63804;53.120;8.764;2023-04-15T11:38:11;101271.63;;;10.86;80.74
54920;BME280;63804;53.120;8.764;2023-04-15T11:40:38;101277.63;;;10.76;81.28
54920;BME280;63804;53.120;8.764;2023-04-15T11:45:37;101281.25;;;10.87;80.72
54920;BME280;63804;53.120;8.764;2023-04-15T11:48:10;101279.72;;;10.97;80.76
54920;BME280;63804;53.120;8.764;2023-04-15T11:50:38;101278.66;;;11.00;80.68
54920;BME280;63804;53.120;8.764;2023-04-15T11:53:08;101280.75;;;10.95;81.04
54920;BME280;63804;53.120;8.764;2023-04-15T11:55:45;101278.97;;;10.95;81.19
54920;BME280;63804;53.120;8.764;2023-04-15T12:00:38;101304.72;;;10.93;81.33
54920;BME280;63804;53.120;8.764;2023-04-15T12:03:17;101295.53;;;10.99;81.30
54920;BME280;63804;53.120;8.764;2023-04-15T12:16:45;101318.50;;;10.98;81.63
54920;BME280;63804;53.120;8.764;2023-04-15T12:19:16;101324.97;;;10.94;81.80
54920;BME280;63804;53.120;8.764;2023-04-15T12:21:44;101328.25;;;10.98;81.64
54920;BME280;63804;53.120;8.764;2023-04-15T12:24:11;101325.94;;;11.06;81.61
54920;BME280;63804;53.120;8.764;2023-04-15T12:26:42;101325.09;;;11.06;81.66
54920;BME280;63804;53.120;8.764;2023-04-15T12:29:07;101332.41;;;11.02;81.69
54920;BME280;63804;53.120;8.764;2023-04-15T12:31:34;101340.59;;;11.12;81.71
54920;BME280;63804;53.120;8.764;2023-04-15T12:34:06;101334.16;;;11.16;81.39
54920;BME280;63804;53.120;8.764;2023-04-15T12:36:32;101336.78;;;11.16;81.47
54920;BME280;63804;53.120;8.764;2023-04-15T12:39:04;101340.22;;;11.31;81.49
54920;BME280;63804;53.120;8.764;2023-04-15T12:41:31;101345.31;;;11.34;81.31
54920;BME280;63804;53.120;8.764;2023-04-15T12:43:58;101345.22;;;11.35;81.63
54920;BME280;63804;53.120;8.764;2023-04-15T12:46:24;101354.13;;;11.47;81.16
54920;BME280;63804;53.120;8.764;2023-04-15T12:48:50;101347.78;;;11.50;80.71
54920;BME280;63804;53.120;8.764;2023-04-15T12:51:18;101357.09;;;11.42;80.93
54920;BME280;63804;53.120;8.764;2023-04-15T12:53:45;101354.56;;;11.41;81.05
54920;BME280;63804;53.120;8.764;2023-04-15T12:56:12;101359.44;;;11.47;81.08
54920;BME280;63804;53.120;8.764;2023-04-15T12:58:37;101356.06;;;11.45;80.90
54920;BME280;63804;53.120;8.764;2023-04-15T13:01:03;101362.53;;;11.54;80.77
54920;BME280;63804;53.120;8.764;2023-04-15T13:03:29;101363.38;;;11.54;80.72
54920;BME280;63804;53.120;8.764;2023-04-15T13:05:54;101369.72;;;11.52;80.93
54920;BME280;63804;53.120;8.764;2023-04-15T13:08:22;101370.06;;;11.47;80.90
54920;BME280;63804;53.120;8.764;2023-04-15T13:10:48;101370.16;;;11.45;81.40
54920;BME280;63804;53.120;8.764;2023-04-15T13:13:13;101377.34;;;11.43;81.65
54920;BME280;63804;53.120;8.764;2023-04-15T13:15:39;101371.66;;;11.62;80.75
54920;BME280;63804;53.120;8.764;2023-04-15T13:18:06;101370.22;;;11.97;79.58